Time,TemperatureF,DewpointF,PressureIn,WindDirection,WindDirectionDegrees,WindSpeedMPH,WindSpeedGustMPH,Humidity,HourlyPrecipIn,Conditions,Clouds,dailyrainin,SoftwareType,DateUTC
2013-07-05 00:00:00,72.4,68.0,30.12,WSW,241,0.0,-999.0,87,-99.99,,,0.00,weatherlink.com 1.10,2013-07-05 04:00:00,
2013-07-05 00:15:00,72.4,68.0,30.12,SSE,153,0.0,-999.0,87,-99.99,,,0.00,weatherlink.com 1.10,2013-07-05 04:15:00,
2013-07-05 00:30:00,72.1,68.0,30.12,SSE,162,0.0,-999.0,88,-99.99,,,0.00,weatherlink.com 1.10,2013-07-05 04:30:00,
2013-07-05 00:45:00,71.8,68.0,30.12,SSW,209,0.0,-999.0,87,-99.99,,,0.00,weatherlink.com 1.10,2013-07-05 04:45:00,
2013-07-05 01:00:00,71.5,68.0,30.12,SE,136,0.0,-999.0,87,-99.99,,,0.00,weatherlink.com 1.10,2013-07-05 05:00:00,
2013-07-05 01:15:00,71.3,68.0,30.12,SSW,199,0.0,-999.0,88,-99.99,,,0.00,weatherlink.com 1.10,2013-07-05 05:15:00,
2013-07-05 01:30:00,71.0,67.0,30.11,South,174,0.0,-999.0,88,-99.99,,,0.00,weatherlink.com 1.10,2013-07-05 05:30:00,
2013-07-05 01:45:00,70.8,67.0,30.11,SW,221,0.0,-999.0,88,-99.99,,,0.00,weatherlink.com 1.10,2013-07-05 05:45:00,
2013-07-05 02:00:00,70.7,67.0,30.10,SE,138,0.0,-999.0,89,-99.99,,,0.00,weatherlink.com 1.10,2013-07-05 06:00:00,
2013-07-05 02:15:00,70.5,67.0,30.10,SE,140,0.0,-999.0,89,-99.99,,,0.00,weatherlink.com 1.10,2013-07-05 06:15:00,
2013-07-05 02:30:00,70.5,67.0,30.10,SE,140,0.0,-999.0,89,-99.99,,,0.00,weatherlink.com 1.10,2013-07-05 06:30:00,
2013-07-05 02:45:00,70.4,67.0,30.10,SE,143,0.0,-999.0,90,-99.99,,,0.00,weatherlink.com 1.10,2013-07-05 06:45:00,
2013-07-05 03:00:00,70.3,67.0,30.09,SE,146,0.0,-999.0,90,-99.99,,,0.00,weatherlink.com 1.10,2013-07-05 07:00:00,
2013-07-05 03:15:00,70.2,67.0,30.09,SE,146,0.0,-999.0,90,-99.99,,,0.00,weatherlink.com 1.10,2013-07-05 07:15:00,
2013-07-05 03:30:00,70.0,67.0,30.10,SE,146,0.0,-999.0,91,-99.99,,,0.00,weatherlink.com 1.10,2013-07-05 07:30:00,
2013-07-05 03:45:00,69.9,67.0,30.10,SSE,147,0.0,-999.0,91,-99.99,,,0.00,weatherlink.com 1.10,2013-07-05 07:45:00,
2013-07-05 04:00:00,69.7,67.0,30.10,SE,146,0.0,-999.0,92,-99.99,,,0.00,weatherlink.com 1.10,2013-07-05 08:00:00,
2013-07-05 04:15:00,69.4,67.0,30.09,SSE,148,0.0,-999.0,92,-99.99,,,0.00,weatherlink.com 1.10,2013-07-05 08:15:00,
2013-07-05 04:30:00,69.2,67.0,30.09,SSE,148,0.0,-999.0,93,-99.99,,,0.00,weatherlink.com 1.10,2013-07-05 08:30:00,
2013-07-05 04:45:00,69.1,67.0,30.09,WSW,249,0.0,-999.0,93,-99.99,,,0.00,weatherlink.com 1.10,2013-07-05 08:45:00,
2013-07-05 05:00:00,68.7,67.0,30.09,WSW,246,0.0,-999.0,93,-99.99,,,0.00,weatherlink.com 1.10,2013-07-05 09:00:00,
2013-07-05 05:15:00,68.4,67.0,30.09,WSW,246,0.0,-999.0,94,-99.99,,,0.00,weatherlink.com 1.10,2013-07-05 09:15:00,
2013-07-05 05:30:00,68.4,67.0,30.09,WSW,246,0.0,-999.0,94,-99.99,,,0.01,weatherlink.com 1.10,2013-07-05 09:30:00,
2013-07-05 06:00:00,68.4,67.0,30.10,WSW,245,0.0,-999.0,94,-99.99,,,0.09,weatherlink.com 1.10,2013-07-05 10:00:00,
2013-07-05 06:15:00,68.3,67.0,30.09,WSW,245,0.0,-999.0,94,-99.99,,,0.15,weatherlink.com 1.10,2013-07-05 10:15:00,
2013-07-05 06:30:00,67.9,66.0,30.10,WSW,245,0.0,-999.0,94,-99.99,,,0.16,weatherlink.com 1.10,2013-07-05 10:30:00,
2013-07-05 06:45:00,-999.0,-99.9,30.10,North,-999,-999.0,-999.0,-999,-99.99,,,0.16,weatherlink.com 1.10,2013-07-05 10:45:00,
2013-07-05 07:00:00,-999.0,-99.9,30.10,North,-999,-999.0,-999.0,-999,-99.99,,,0.16,weatherlink.com 1.10,2013-07-05 11:00:00,
2013-07-05 07:30:00,-999.0,-99.9,30.10,North,-999,-999.0,-999.0,-999,-99.99,,,0.16,weatherlink.com 1.10,2013-07-05 11:30:00,
2013-07-05 07:45:00,-999.0,-99.9,30.10,North,-999,-999.0,-999.0,-999,-99.99,,,0.16,weatherlink.com 1.10,2013-07-05 11:45:00,
2013-07-05 08:00:00,-999.0,-99.9,30.11,North,-999,-999.0,-999.0,-999,-99.99,,,0.16,weatherlink.com 1.10,2013-07-05 12:00:00,
2013-07-05 08:30:00,-999.0,-99.9,30.11,North,-999,-999.0,-999.0,-999,-99.99,,,0.16,weatherlink.com 1.10,2013-07-05 12:30:00,
2013-07-05 08:45:00,-999.0,-99.9,30.11,North,-999,-999.0,-999.0,-999,-99.99,,,0.16,weatherlink.com 1.10,2013-07-05 12:45:00,
2013-07-05 09:00:00,68.6,67.0,30.12,WSW,245,0.0,-999.0,95,-99.99,,,0.16,weatherlink.com 1.10,2013-07-05 13:00:00,
2013-07-05 09:30:00,69.7,68.0,30.13,WSW,239,0.0,-999.0,94,-99.99,,,0.16,weatherlink.com 1.10,2013-07-05 13:30:00,
2013-07-05 10:00:00,72.3,68.0,30.14,WSW,241,0.0,-999.0,85,-99.99,,,0.16,weatherlink.com 1.10,2013-07-05 14:00:00,
2013-07-05 10:15:00,73.1,67.0,30.14,WSW,246,0.0,-999.0,80,-99.99,,,0.16,weatherlink.com 1.10,2013-07-05 14:15:00,
2013-07-05 10:30:00,73.3,66.0,30.13,WSW,245,0.0,-999.0,77,-99.99,,,0.16,weatherlink.com 1.10,2013-07-05 14:30:00,
2013-07-05 10:45:00,74.4,67.0,30.13,WSW,243,0.0,-999.0,77,-99.99,,,0.16,weatherlink.com 1.10,2013-07-05 14:45:00,
2013-07-05 11:00:00,75.3,66.0,30.13,WSW,243,0.0,-999.0,73,-99.99,,,0.16,weatherlink.com 1.10,2013-07-05 15:00:00,
2013-07-05 11:15:00,76.2,66.0,30.13,SW,235,1.0,-999.0,71,-99.99,,,0.16,weatherlink.com 1.10,2013-07-05 15:15:00,
2013-07-05 11:30:00,77.1,66.0,30.14,SW,220,1.0,-999.0,69,-99.99,,,0.16,weatherlink.com 1.10,2013-07-05 15:30:00,
2013-07-05 11:45:00,78.0,65.0,30.14,SW,236,0.0,-999.0,65,-99.99,,,0.16,weatherlink.com 1.10,2013-07-05 15:45:00,
2013-07-05 12:00:00,78.2,65.0,30.14,SSE,158,0.0,-999.0,65,-99.99,,,0.16,weatherlink.com 1.10,2013-07-05 16:00:00,
2013-07-05 12:15:00,79.2,67.0,30.13,WSW,245,0.0,-999.0,66,-99.99,,,0.16,weatherlink.com 1.10,2013-07-05 16:15:00,
2013-07-05 12:30:00,79.9,66.0,30.13,WSW,249,1.0,-999.0,62,-99.99,,,0.16,weatherlink.com 1.10,2013-07-05 16:30:00,
2013-07-05 12:45:00,80.4,66.0,30.13,SW,231,0.0,-999.0,61,-99.99,,,0.16,weatherlink.com 1.10,2013-07-05 16:45:00,
2013-07-05 13:00:00,80.7,66.0,30.13,SW,235,4.0,-999.0,61,-99.99,,,0.16,weatherlink.com 1.10,2013-07-05 17:00:00,
2013-07-05 13:15:00,81.0,67.0,30.13,West,276,0.0,-999.0,63,-99.99,,,0.16,weatherlink.com 1.10,2013-07-05 17:15:00,
2013-07-05 13:30:00,82.0,65.0,30.13,SSW,211,0.0,-999.0,57,-99.99,,,0.16,weatherlink.com 1.10,2013-07-05 17:30:00,
2013-07-05 13:45:00,82.8,66.0,30.12,SSW,212,1.0,-999.0,57,-99.99,,,0.16,weatherlink.com 1.10,2013-07-05 17:45:00,
2013-07-05 14:00:00,82.8,65.0,30.11,SE,127,0.0,-999.0,56,-99.99,,,0.16,weatherlink.com 1.10,2013-07-05 18:00:00,
2013-07-05 14:15:00,83.1,65.0,30.11,East,87,0.0,-999.0,55,-99.99,,,0.16,weatherlink.com 1.10,2013-07-05 18:15:00,
2013-07-05 14:29:00,83.6,66.0,30.11,SW,217,0.0,-999.0,55,-99.99,,,0.16,weatherlink.com 1.10,2013-07-05 18:29:00,
2013-07-05 14:44:00,83.4,66.0,30.11,SW,236,1.0,-999.0,55,-99.99,,,0.16,weatherlink.com 1.10,2013-07-05 18:44:00,
2013-07-05 14:59:00,83.9,67.0,30.11,SSW,200,1.0,-999.0,57,-99.99,,,0.16,weatherlink.com 1.10,2013-07-05 18:59:00,
2013-07-05 15:14:00,83.4,66.0,30.11,SSW,193,0.0,-999.0,55,-99.99,,,0.16,weatherlink.com 1.10,2013-07-05 19:14:00,
2013-07-05 15:29:00,81.8,68.0,30.11,NE,53,0.0,-999.0,63,-99.99,,,0.16,weatherlink.com 1.10,2013-07-05 19:29:00,
2013-07-05 15:44:00,81.1,67.0,30.10,East,82,0.0,-999.0,63,-99.99,,,0.16,weatherlink.com 1.10,2013-07-05 19:44:00,
2013-07-05 15:59:00,80.3,68.0,30.10,NE,47,0.0,-999.0,66,-99.99,,,0.16,weatherlink.com 1.10,2013-07-05 19:59:00,
2013-07-05 16:14:00,80.2,66.0,30.10,NE,34,0.0,-999.0,63,-99.99,,,0.16,weatherlink.com 1.10,2013-07-05 20:14:00,
2013-07-05 16:29:00,80.5,68.0,30.09,ESE,108,0.0,-999.0,65,-99.99,,,0.16,weatherlink.com 1.10,2013-07-05 20:29:00,
2013-07-05 16:44:00,80.6,68.0,30.09,East,89,0.0,-999.0,66,-99.99,,,0.16,weatherlink.com 1.10,2013-07-05 20:44:00,
2013-07-05 16:59:00,80.1,68.0,30.08,NNE,26,1.0,-999.0,67,-99.99,,,0.16,weatherlink.com 1.10,2013-07-05 20:59:00,
2013-07-05 17:14:00,80.2,67.0,30.08,ENE,70,0.0,-999.0,64,-99.99,,,0.16,weatherlink.com 1.10,2013-07-05 21:14:00,
2013-07-05 17:29:00,80.3,69.0,30.08,SE,143,1.0,-999.0,68,-99.99,,,0.16,weatherlink.com 1.10,2013-07-05 21:29:00,
2013-07-05 17:44:00,79.8,69.0,30.09,SSE,162,1.0,-999.0,70,-99.99,,,0.16,weatherlink.com 1.10,2013-07-05 21:44:00,
2013-07-05 17:59:00,80.0,69.0,30.08,South,190,0.0,-999.0,70,-99.99,,,0.16,weatherlink.com 1.10,2013-07-05 21:59:00,
2013-07-05 18:14:00,80.6,70.0,30.09,SSE,161,0.0,-999.0,69,-99.99,,,0.16,weatherlink.com 1.10,2013-07-05 22:14:00,
2013-07-05 18:29:00,80.3,70.0,30.08,SSE,158,0.0,-999.0,70,-99.99,,,0.16,weatherlink.com 1.10,2013-07-05 22:29:00,
2013-07-05 18:44:00,79.8,70.0,30.07,NE,41,0.0,-999.0,72,-99.99,,,0.16,weatherlink.com 1.10,2013-07-05 22:44:00,
2013-07-05 18:59:00,80.1,70.0,30.07,SE,146,2.0,-999.0,70,-99.99,,,0.16,weatherlink.com 1.10,2013-07-05 22:59:00,
2013-07-05 19:14:00,79.7,69.0,30.08,SE,135,3.0,-999.0,70,-99.99,,,0.16,weatherlink.com 1.10,2013-07-05 23:14:00,
2013-07-05 19:29:00,79.7,70.0,30.07,SSE,166,0.0,-999.0,71,-99.99,,,0.16,weatherlink.com 1.10,2013-07-05 23:29:00,
2013-07-05 19:44:00,79.5,69.0,30.07,SE,137,0.0,-999.0,71,-99.99,,,0.16,weatherlink.com 1.10,2013-07-05 23:44:00,
2013-07-05 19:59:00,78.9,69.0,30.07,SSE,163,1.0,-999.0,72,-99.99,,,0.16,weatherlink.com 1.10,2013-07-05 23:59:00,
2013-07-05 20:14:00,78.6,69.0,30.08,SE,146,0.0,-999.0,73,-99.99,,,0.16,weatherlink.com 1.10,2013-07-06 00:14:00,
2013-07-05 20:29:00,78.1,69.0,30.08,SSW,206,0.0,-999.0,74,-99.99,,,0.16,weatherlink.com 1.10,2013-07-06 00:29:00,
2013-07-05 20:44:00,77.6,69.0,30.08,SE,144,1.0,-999.0,74,-99.99,,,0.16,weatherlink.com 1.10,2013-07-06 00:44:00,
2013-07-05 20:59:00,77.3,69.0,30.09,SE,139,2.0,-999.0,75,-99.99,,,0.16,weatherlink.com 1.10,2013-07-06 00:59:00,
2013-07-05 21:14:00,76.9,68.0,30.09,SSE,160,0.0,-999.0,75,-99.99,,,0.16,weatherlink.com 1.10,2013-07-06 01:14:00,
2013-07-05 21:29:00,76.5,68.0,30.09,SSE,158,0.0,-999.0,76,-99.99,,,0.16,weatherlink.com 1.10,2013-07-06 01:29:00,
2013-07-05 21:44:00,76.0,68.0,30.10,SSE,158,0.0,-999.0,77,-99.99,,,0.16,weatherlink.com 1.10,2013-07-06 01:44:00,
2013-07-05 21:59:00,75.7,68.0,30.10,SSE,158,0.0,-999.0,78,-99.99,,,0.16,weatherlink.com 1.10,2013-07-06 01:59:00,
2013-07-05 22:14:00,75.3,69.0,30.10,SSE,158,0.0,-999.0,80,-99.99,,,0.16,weatherlink.com 1.10,2013-07-06 02:14:00,
2013-07-05 22:29:00,75.0,69.0,30.11,SSW,201,0.0,-999.0,81,-99.99,,,0.16,weatherlink.com 1.10,2013-07-06 02:29:00,
2013-07-05 22:44:00,74.7,69.0,30.11,SSW,201,0.0,-999.0,82,-99.99,,,0.16,weatherlink.com 1.10,2013-07-06 02:44:00,
2013-07-05 22:59:00,74.3,69.0,30.11,SSW,201,0.0,-999.0,83,-99.99,,,0.16,weatherlink.com 1.10,2013-07-06 02:59:00,
2013-07-05 23:14:00,73.8,69.0,30.11,SSW,208,0.0,-999.0,85,-99.99,,,0.16,weatherlink.com 1.10,2013-07-06 03:14:00,
2013-07-05 23:29:00,73.4,69.0,30.11,SSW,207,0.0,-999.0,86,-99.99,,,0.16,weatherlink.com 1.10,2013-07-06 03:29:00,
2013-07-05 23:44:00,73.2,69.0,30.11,SSW,207,0.0,-999.0,86,-99.99,,,0.16,weatherlink.com 1.10,2013-07-06 03:44:00,
2013-07-05 23:59:00,73.0,69.0,30.11,SSW,207,0.0,-999.0,86,-99.99,,,0.16,weatherlink.com 1.10,2013-07-06 03:59:00,